createdAt,value
2022-10-26T03:46:32.620Z,9.64
2022-10-26T03:49:36.069Z,9.64
2022-10-26T03:52:38.796Z,9.17
2022-10-26T03:55:44.658Z,9.19
2022-10-26T03:58:47.012Z,9.20
2022-10-26T04:01:52.754Z,9.17
2022-10-26T04:04:58.130Z,9.17
2022-10-26T04:08:04.685Z,9.18
2022-10-26T04:11:07.387Z,9.17
2022-10-26T04:14:09.640Z,9.16
2022-10-26T04:17:12.243Z,9.20
2022-10-26T04:20:15.265Z,9.20
2022-10-26T04:23:19.516Z,9.17
2022-10-26T04:26:21.829Z,9.25
2022-10-26T04:29:24.468Z,9.19
2022-10-26T04:32:27.020Z,9.17
2022-10-26T04:35:30.211Z,9.17
2022-10-26T04:38:32.573Z,9.14
2022-10-26T04:41:35.131Z,9.15
2022-10-26T04:44:37.422Z,9.17
2022-10-26T04:47:40.674Z,9.10
2022-10-26T04:50:42.957Z,9.11
2022-10-26T04:53:45.490Z,9.13
2022-10-26T04:56:47.723Z,9.10
2022-10-26T04:59:50.655Z,9.08
2022-10-26T05:03:02.865Z,9.12
2022-10-26T05:06:05.665Z,9.10
2022-10-26T05:09:08.011Z,9.15
2022-10-26T05:12:10.577Z,9.13
2022-10-26T05:15:15.071Z,9.17
2022-10-26T05:18:17.850Z,9.19
2022-10-26T05:21:20.225Z,9.13
2022-10-26T05:24:22.831Z,9.14
2022-10-26T05:27:25.181Z,9.22
2022-10-26T05:30:29.956Z,9.35
2022-10-26T05:33:32.230Z,9.30
2022-10-26T05:36:34.726Z,9.27
2022-10-26T05:39:37.035Z,9.35
2022-10-26T05:42:39.611Z,9.35
2022-10-26T05:45:41.870Z,9.30
2022-10-26T05:48:44.543Z,9.25
2022-10-26T05:51:46.897Z,9.23
2022-10-26T05:54:49.500Z,9.38
2022-10-26T05:57:52.144Z,9.44
2022-10-26T06:01:20.202Z,9.62
2022-10-26T06:04:38.750Z,9.79
2022-10-26T06:07:41.504Z,9.93
2022-10-26T06:10:44.321Z,10.10
2022-10-26T06:13:46.956Z,10.10
2022-10-26T06:16:57.563Z,10.04
2022-10-26T06:20:22.257Z,10.16
2022-10-26T06:23:44.864Z,10.11
2022-10-26T06:27:15.768Z,10.15
2022-10-26T06:30:23.316Z,10.36
2022-10-26T06:33:30.631Z,10.31
2022-10-26T06:36:34.102Z,10.29
2022-10-26T06:39:42.195Z,10.30
2022-10-26T06:42:45.037Z,10.41
2022-10-26T06:45:52.102Z,10.46
2022-10-26T06:49:10.971Z,10.50
2022-10-26T06:52:25.619Z,10.60
2022-10-26T06:55:37.394Z,10.95
2022-10-26T06:58:41.317Z,10.95
2022-10-26T07:01:44.299Z,11.07
2022-10-26T07:04:47.408Z,11.09
2022-10-26T07:07:50.249Z,11.14
2022-10-26T07:10:52.826Z,11.25
2022-10-26T07:13:55.569Z,11.30
2022-10-26T07:16:57.970Z,11.32
2022-10-26T07:20:00.550Z,11.21
2022-10-26T07:23:02.907Z,11.15
2022-10-26T07:26:05.657Z,11.04
2022-10-26T07:29:08.119Z,11.01
2022-10-26T07:32:10.764Z,11.04
2022-10-26T07:35:13.143Z,11.11
2022-10-26T07:38:15.641Z,11.21
2022-10-26T07:41:17.977Z,11.33
2022-10-26T07:44:20.487Z,11.43
2022-10-26T07:47:22.922Z,11.55
2022-10-26T07:50:25.894Z,11.48
2022-10-26T07:53:28.362Z,11.65
2022-10-26T07:56:30.944Z,11.69
2022-10-26T07:59:33.348Z,11.83
2022-10-26T08:02:36.467Z,11.91
2022-10-26T08:05:39.007Z,11.97
2022-10-26T08:08:44.951Z,11.93
2022-10-26T08:11:49.875Z,11.86
2022-10-26T08:14:52.166Z,11.83
2022-10-26T08:17:54.648Z,11.77
2022-10-26T08:21:10.690Z,11.75
2022-10-26T08:24:14.918Z,11.82
2022-10-26T08:27:17.842Z,12.06
2022-10-26T08:30:20.762Z,12.28
2022-10-26T08:33:24.078Z,12.65
2022-10-26T08:36:27.496Z,12.73
2022-10-26T08:39:30.859Z,12.79
2022-10-26T08:42:42.911Z,13.02
2022-10-26T08:45:56.711Z,13.28
2022-10-26T08:49:14.752Z,13.71
2022-10-26T08:52:20.460Z,13.69
2022-10-26T08:55:28.918Z,13.41
2022-10-26T08:58:39.817Z,13.40
2022-10-26T09:01:42.731Z,13.40
2022-10-26T09:04:45.501Z,13.38
2022-10-26T09:07:53.385Z,13.49
2022-10-26T09:11:17.926Z,13.71
2022-10-26T09:14:38.317Z,13.75
2022-10-26T09:17:46.680Z,13.71
2022-10-26T09:21:03.499Z,13.86
2022-10-26T09:24:21.982Z,14.04
2022-10-26T09:27:34.730Z,14.21
2022-10-26T09:30:37.802Z,14.25
2022-10-26T09:33:40.834Z,14.34
2022-10-26T09:36:42.967Z,14.35
2022-10-26T09:39:54.948Z,14.53
2022-10-26T09:42:59.982Z,14.56
2022-10-26T09:46:02.642Z,14.72
2022-10-26T09:49:08.604Z,14.88
2022-10-26T09:55:20.748Z,15.54
2022-10-26T09:58:28.795Z,15.76
2022-10-26T10:01:36.853Z,15.98
2022-10-26T10:04:48.176Z,16.13
2022-10-26T10:07:51.206Z,16.16
2022-10-26T10:10:59.183Z,16.07
2022-10-26T10:14:08.788Z,16.12
2022-10-26T10:17:22.660Z,15.96
2022-10-26T10:20:31.740Z,15.85
2022-10-26T10:23:49.771Z,15.50
2022-10-26T10:26:59.526Z,15.15
2022-10-26T10:30:22.431Z,15.11
2022-10-26T10:33:36.018Z,15.10
2022-10-26T10:36:40.025Z,14.98
2022-10-26T10:39:42.907Z,14.90
2022-10-26T10:42:47.704Z,14.87
2022-10-26T10:45:54.736Z,15.07
2022-10-26T10:49:06.666Z,15.20
2022-10-26T10:52:23.053Z,15.15
2022-10-26T10:55:26.897Z,15.22
2022-10-26T10:58:38.490Z,15.23
2022-10-26T11:01:52.155Z,15.44
2022-10-26T11:05:04.482Z,15.59
2022-10-26T11:08:12.600Z,15.45
2022-10-26T11:11:40.581Z,15.63
2022-10-26T11:14:52.383Z,15.77
2022-10-26T11:18:05.092Z,15.73
2022-10-26T11:21:28.959Z,15.69
2022-10-26T11:24:43.883Z,15.70
2022-10-26T11:27:55.923Z,15.84
2022-10-26T11:31:03.409Z,15.91
2022-10-26T11:34:46.146Z,16.00
2022-10-26T11:38:05.511Z,15.98
2022-10-26T11:41:26.036Z,15.80
2022-10-26T11:44:37.966Z,15.85
2022-10-26T11:47:48.153Z,15.73
2022-10-26T11:50:55.027Z,15.61
2022-10-26T11:54:06.130Z,15.62
2022-10-26T11:57:10.380Z,15.50
2022-10-26T12:00:13.028Z,15.44
2022-10-26T12:03:26.972Z,15.35
2022-10-26T12:06:33.081Z,15.36
2022-10-26T12:09:38.878Z,15.63
2022-10-26T12:13:08.870Z,15.73
2022-10-26T12:16:42.770Z,16.05
2022-10-26T12:19:51.388Z,16.39
2022-10-26T12:22:54.121Z,16.61
2022-10-26T12:26:24.365Z,16.59
2022-10-26T12:29:31.578Z,16.75
2022-10-26T12:32:33.797Z,16.80
2022-10-26T12:35:39.331Z,16.81
2022-10-26T12:38:41.586Z,16.77
2022-10-26T12:41:56.155Z,16.83
2022-10-26T12:44:58.404Z,16.90
2022-10-26T12:48:10.671Z,16.87
2022-10-26T12:51:24.554Z,16.92
2022-10-26T12:54:45.881Z,17.00
2022-10-26T12:58:00.178Z,16.98
2022-10-26T13:01:03.434Z,17.02
2022-10-26T13:04:38.318Z,17.22
2022-10-26T13:07:41.762Z,17.37
2022-10-26T13:11:13.957Z,17.39
2022-10-26T13:14:21.936Z,17.31
2022-10-26T13:17:27.174Z,17.33
2022-10-26T13:20:31.920Z,17.34
2022-10-26T13:23:37.791Z,17.23
2022-10-26T13:27:19.430Z,17.30
2022-10-26T13:30:46.248Z,17.39
2022-10-26T13:33:52.341Z,17.55
2022-10-26T13:37:14.153Z,17.54
2022-10-26T13:40:23.377Z,17.55
2022-10-26T13:43:27.406Z,17.48
2022-10-26T13:46:35.708Z,17.52
2022-10-26T13:49:44.216Z,17.42
2022-10-26T13:53:01.096Z,17.37
2022-10-26T13:56:21.715Z,17.26
2022-10-26T13:59:26.526Z,17.38
2022-10-26T14:02:32.435Z,17.28
2022-10-26T14:05:50.867Z,17.15
2022-10-26T14:08:57.610Z,17.16
2022-10-26T14:12:02.107Z,17.08
2022-10-26T14:15:09.164Z,17.16
2022-10-26T14:18:18.064Z,17.15
2022-10-26T14:21:22.616Z,17.24
2022-10-26T14:24:45.646Z,17.27
2022-10-26T14:27:49.716Z,17.19
2022-10-26T14:30:52.559Z,17.29
2022-10-26T14:33:57.150Z,17.22
2022-10-26T14:37:04.999Z,17.06
2022-10-26T14:40:15.861Z,16.93
2022-10-26T14:43:22.909Z,16.96
2022-10-26T14:46:27.216Z,17.02
2022-10-26T14:49:30.095Z,16.97
2022-10-26T14:52:35.858Z,16.94
2022-10-26T14:55:50.959Z,16.90
2022-10-26T14:58:53.793Z,16.87
2022-10-26T15:02:18.137Z,16.89
2022-10-26T15:05:23.619Z,16.85
2022-10-26T15:08:55.832Z,16.69
2022-10-26T15:11:59.619Z,16.74
2022-10-26T15:15:14.433Z,16.63
2022-10-26T15:18:23.714Z,16.50
2022-10-26T15:21:40.130Z,16.37
2022-10-26T15:24:43.351Z,16.27
2022-10-26T15:27:47.944Z,16.26
2022-10-26T15:31:23.401Z,16.28
2022-10-26T15:34:26.196Z,16.22
2022-10-26T15:37:28.580Z,16.30
2022-10-26T15:40:31.921Z,16.16
2022-10-26T15:43:34.219Z,16.08
